Time;durP1;ratioP1;P1;durP2;ratioP2;P2;SDS_P1;SDS_P2;PMS_P1;PMS_P2;Temp;Humidity;BMP_temperature;BMP_pressure;BME280_temperature;BME280_humidity;BME280_pressure;Samples;Min_cycle;Max_cycle;Signal;HPM_P1;HPM_P2
2022/10/26 00:00:54;;;;;;;1.63;0.50;;;25.90;99.90;;;;;;5012365;28;20198;-86
2022/10/26 00:03:28;;;;;;;0.85;0.32;;;26.00;99.90;;;;;;5010087;28;20259;-94
2022/10/26 00:06:07;;;;;;;1.75;0.43;;;26.10;99.90;;;;;;5015357;28;20672;-93
2022/10/26 00:08:40;;;;;;;0.52;0.30;;;26.10;99.90;;;;;;5018551;28;20201;-93
2022/10/26 00:11:13;;;;;;;0.90;0.30;;;26.20;99.90;;;;;;5015457;28;20332;-91
2022/10/26 00:13:48;;;;;;;2.83;0.50;;;26.20;99.90;;;;;;5014155;28;20190;-91
2022/10/26 00:16:24;;;;;;;3.55;0.50;;;26.30;99.90;;;;;;5014131;28;20202;-91
2022/10/26 00:18:56;;;;;;;2.22;0.50;;;26.30;99.90;;;;;;5019413;28;20249;-92
2022/10/26 00:21:27;;;;;;;1.50;0.40;;;26.30;99.90;;;;;;5026008;28;20226;-93
2022/10/26 00:24:00;;;;;;;0.57;0.40;;;26.30;99.90;;;;;;5014832;28;20284;-92
2022/10/26 00:26:31;;;;;;;0.75;0.50;;;26.30;99.90;;;;;;5014492;28;20277;-92
2022/10/26 00:29:03;;;;;;;0.82;0.43;;;26.20;99.90;;;;;;5015700;28;20206;-93
2022/10/26 00:31:36;;;;;;;0.93;0.40;;;26.20;99.90;;;;;;5006861;28;20198;-92
2022/10/26 00:34:07;;;;;;;2.25;0.55;;;26.30;99.90;;;;;;5012685;28;20204;-94
2022/10/26 00:36:38;;;;;;;0.40;0.35;;;26.60;99.90;;;;;;5018259;28;20213;-92
2022/10/26 00:39:13;;;;;;;0.50;0.30;;;26.60;99.90;;;;;;5024567;28;20198;-92
2022/10/26 00:41:44;;;;;;;0.65;0.20;;;26.60;99.90;;;;;;4996717;28;20204;-92
2022/10/26 00:45:00;;;;;;;0.60;0.30;;;26.50;99.90;;;;;;5014769;28;20633;-90
2022/10/26 00:47:41;;;;;;;1.40;0.30;;;26.50;99.90;;;;;;4980496;28;20211;-92
2022/10/26 00:50:17;;;;;;;1.10;0.30;;;26.50;99.90;;;;;;5010778;28;20206;-92
2022/10/26 00:52:49;;;;;;;1.85;0.40;;;26.50;99.90;;;;;;5010424;28;20242;-93
2022/10/26 00:55:24;;;;;;;1.35;0.50;;;26.50;99.90;;;;;;4986609;28;20211;-91
2022/10/26 00:57:57;;;;;;;0.73;0.50;;;26.40;99.90;;;;;;4995525;28;20244;-89
2022/10/26 01:00:29;;;;;;;0.38;0.38;;;26.30;99.90;;;;;;5013189;28;20248;-92
2022/10/26 01:03:08;;;;;;;0.65;0.30;;;26.30;99.90;;;;;;4991635;28;20563;-93
2022/10/26 01:05:41;;;;;;;1.48;0.50;;;26.30;99.90;;;;;;4998772;28;20202;-93
2022/10/26 01:08:14;;;;;;;0.40;0.20;;;26.30;99.90;;;;;;4996724;28;20221;-93
2022/10/26 01:10:46;;;;;;;0.32;0.20;;;26.30;99.90;;;;;;5015909;28;20260;-94
2022/10/26 01:13:18;;;;;;;0.75;0.20;;;26.40;99.90;;;;;;5019532;28;20257;-90
2022/10/26 01:15:57;;;;;;;0.28;0.28;;;26.40;99.90;;;;;;5015487;28;20204;-92
2022/10/26 01:18:42;;;;;;;0.68;0.30;;;26.50;99.90;;;;;;5014633;28;20201;-92
2022/10/26 01:21:51;;;;;;;0.25;0.20;;;26.60;99.90;;;;;;5007823;28;20185;-93
2022/10/26 01:24:55;;;;;;;0.10;0.10;;;27.00;99.90;;;;;;5017565;28;20704;-91
2022/10/26 01:27:31;;;;;;;1.40;0.20;;;27.40;99.90;;;;;;4998205;28;20203;-92
2022/10/26 01:30:40;;;;;;;0.63;0.20;;;27.60;99.90;;;;;;5013558;28;20197;-91
2022/10/26 01:33:23;;;;;;;1.45;0.13;;;27.90;99.90;;;;;;5013248;28;20226;-92
2022/10/26 01:36:04;;;;;;;0.50;0.10;;;28.30;99.90;;;;;;5010042;28;20198;-94
2022/10/26 01:38:43;;;;;;;0.68;0.20;;;28.20;99.90;;;;;;5011577;28;20208;-92
2022/10/26 01:41:20;;;;;;;0.10;0.10;;;28.50;99.90;;;;;;5011706;28;20236;-93
2022/10/26 01:43:58;;;;;;;2.03;0.22;;;28.50;99.90;;;;;;5013215;28;20261;-95
2022/10/26 01:46:33;;;;;;;0.30;0.20;;;28.60;99.90;;;;;;5033042;28;20213;-94
2022/10/26 01:49:10;;;;;;;0.38;0.20;;;28.60;99.90;;;;;;5019394;28;20197;-96
2022/10/26 01:51:44;;;;;;;0.15;0.10;;;28.80;96.80;;;;;;5010452;28;20760;-92
2022/10/26 01:54:16;;;;;;;1.95;0.10;;;28.90;94.30;;;;;;5010863;28;20661;-94
2022/10/26 01:56:59;;;;;;;1.55;0.20;;;28.90;93.50;;;;;;5009150;28;20198;-94
2022/10/26 01:59:42;;;;;;;0.15;0.15;;;29.00;92.70;;;;;;5020570;28;20265;-94
2022/10/26 02:02:52;;;;;;;0.25;0.15;;;29.10;90.90;;;;;;5024878;28;20256;-95
2022/10/26 02:05:47;;;;;;;0.40;0.17;;;28.90;93.20;;;;;;5013606;28;20205;-96
2022/10/26 02:08:36;;;;;;;0.20;0.20;;;28.60;91.10;;;;;;5016847;28;20209;-96
2022/10/26 02:11:15;;;;;;;1.85;0.20;;;28.60;91.90;;;;;;5018106;28;20198;-95
2022/10/26 02:13:56;;;;;;;1.75;0.20;;;28.60;88.30;;;;;;5016155;28;20312;-95
2022/10/26 02:16:31;;;;;;;4.03;0.40;;;28.50;83.90;;;;;;5021207;28;20216;-96
2022/10/26 02:19:09;;;;;;;0.88;0.30;;;28.60;81.20;;;;;;5011209;28;20194;-91
2022/10/26 02:21:49;;;;;;;0.30;0.30;;;28.70;83.30;;;;;;5017014;28;20186;-92
2022/10/26 02:24:23;;;;;;;0.20;0.20;;;28.70;76.90;;;;;;5018237;28;20202;-95
2022/10/26 02:26:59;;;;;;;0.77;0.20;;;28.60;78.50;;;;;;5017078;28;20280;-93
2022/10/26 02:29:31;;;;;;;1.85;0.20;;;28.70;78.10;;;;;;5006317;28;20210;-92
2022/10/26 02:32:05;;;;;;;0.50;0.38;;;28.70;79.50;;;;;;4994951;28;20277;-96
2022/10/26 02:34:39;;;;;;;1.05;0.20;;;28.60;78.60;;;;;;4995062;28;21448;-94
2022/10/26 02:37:17;;;;;;;0.30;0.30;;;28.50;73.90;;;;;;5012251;28;20260;-93
2022/10/26 02:39:52;;;;;;;2.17;0.40;;;28.40;75.20;;;;;;5007044;28;20294;-94
2022/10/26 02:42:24;;;;;;;2.10;0.20;;;28.40;76.50;;;;;;4987066;28;20578;-94
2022/10/26 02:44:59;;;;;;;2.08;0.30;;;28.40;77.60;;;;;;4979483;28;20232;-96
2022/10/26 02:47:31;;;;;;;0.60;0.30;;;28.40;77.60;;;;;;4985084;28;20299;-96
2022/10/26 02:50:03;;;;;;;0.50;0.30;;;28.50;78.90;;;;;;4981225;28;20228;-92
2022/10/26 02:52:47;;;;;;;0.20;0.20;;;28.60;77.50;;;;;;4987178;28;21664;-91
2022/10/26 02:55:22;;;;;;;0.45;0.40;;;29.00;78.50;;;;;;4971602;28;20231;-95
2022/10/26 02:57:56;;;;;;;0.68;0.20;;;29.20;75.10;;;;;;4983326;28;20224;-95
2022/10/26 03:00:27;;;;;;;0.20;0.20;;;29.30;74.30;;;;;;4988890;28;20361;-96
2022/10/26 03:03:02;;;;;;;0.93;0.20;;;29.20;73.80;;;;;;4988368;28;20222;-95
2022/10/26 03:05:35;;;;;;;0.20;0.20;;;29.30;71.20;;;;;;4979887;28;20304;-95
2022/10/26 03:08:10;;;;;;;1.00;0.25;;;29.40;74.10;;;;;;4984823;28;20683;-96
2022/10/26 03:10:45;;;;;;;0.30;0.30;;;29.40;72.30;;;;;;4990079;28;20696;-93
2022/10/26 03:13:19;;;;;;;0.85;0.38;;;29.50;70.30;;;;;;4992012;28;20626;-95
2022/10/26 03:15:52;;;;;;;0.68;0.20;;;29.60;69.70;;;;;;5011990;28;20213;-93
2022/10/26 03:18:24;;;;;;;0.45;0.15;;;29.80;68.00;;;;;;5016496;28;20256;-93
2022/10/26 03:20:55;;;;;;;0.70;0.28;;;30.00;64.20;;;;;;5026350;28;20213;-90
2022/10/26 03:23:29;;;;;;;0.13;0.13;;;30.00;63.30;;;;;;5032062;28;20261;-92
2022/10/26 03:26:01;;;;;;;0.40;0.38;;;30.00;61.20;;;;;;5019147;28;20225;-92
2022/10/26 03:28:33;;;;;;;0.10;0.10;;;30.10;62.20;;;;;;5003198;28;20661;-91
2022/10/26 03:31:04;;;;;;;0.20;0.20;;;30.30;60.30;;;;;;4997034;28;20194;-94
2022/10/26 03:33:35;;;;;;;0.57;0.20;;;30.40;58.50;;;;;;5017089;28;20312;-94
2022/10/26 03:36:06;;;;;;;0.40;0.30;;;30.50;60.60;;;;;;5015386;28;20206;-92
2022/10/26 03:38:45;;;;;;;0.30;0.30;;;30.40;57.80;;;;;;5014802;28;20219;-95
2022/10/26 03:41:17;;;;;;;3.60;0.47;;;30.40;59.30;;;;;;5026458;28;20206;-96
2022/10/26 03:43:52;;;;;;;0.30;0.30;;;30.50;58.20;;;;;;5001549;28;20229;-94
2022/10/26 03:46:24;;;;;;;1.17;0.30;;;30.80;56.80;;;;;;5016877;28;20197;-94
2022/10/26 03:48:56;;;;;;;0.20;0.20;;;30.70;56.60;;;;;;5017234;28;20636;-95
2022/10/26 03:51:30;;;;;;;1.70;0.30;;;30.80;56.10;;;;;;5016923;28;20302;-92
2022/10/26 03:54:04;;;;;;;0.47;0.30;;;30.80;55.60;;;;;;5016164;28;20234;-91
2022/10/26 03:56:36;;;;;;;2.05;0.40;;;30.40;55.20;;;;;;5014082;28;20220;-92
2022/10/26 03:59:07;;;;;;;0.68;0.30;;;30.10;56.50;;;;;;5014659;28;20685;-92
2022/10/26 04:01:38;;;;;;;1.23;0.20;;;30.00;58.70;;;;;;5010296;28;20352;-93
2022/10/26 04:04:09;;;;;;;0.10;0.10;;;30.00;59.90;;;;;;5015257;28;20190;-93
2022/10/26 04:06:41;;;;;;;1.48;0.30;;;29.70;61.90;;;;;;5015887;28;20240;-91
2022/10/26 04:09:15;;;;;;;0.38;0.20;;;29.40;62.50;;;;;;5015258;28;20268;-91
2022/10/26 04:11:46;;;;;;;1.65;0.20;;;29.50;61.70;;;;;;5013060;28;20220;-94
2022/10/26 04:14:18;;;;;;;0.50;0.20;;;29.80;61.70;;;;;;5014338;28;20328;-92
2022/10/26 04:16:51;;;;;;;0.20;0.20;;;29.80;61.60;;;;;;5014127;28;20241;-89
2022/10/26 04:19:22;;;;;;;0.60;0.20;;;29.60;61.30;;;;;;5012020;28;20201;-89
2022/10/26 04:21:55;;;;;;;0.43;0.20;;;29.80;63.20;;;;;;5024631;28;20190;-91
2022/10/26 04:24:28;;;;;;;0.20;0.20;;;30.10;60.30;;;;;;5005803;28;20199;-90
2022/10/26 04:26:59;;;;;;;0.20;0.20;;;30.40;60.00;;;;;;4988161;28;20210;-92
2022/10/26 04:29:31;;;;;;;0.73;0.28;;;30.50;58.80;;;;;;5005228;28;20213;-93
2022/10/26 04:32:02;;;;;;;0.47;0.20;;;30.70;57.40;;;;;;5001711;28;20207;-92
2022/10/26 04:34:33;;;;;;;0.40;0.20;;;31.00;57.00;;;;;;5012374;28;20221;-90
2022/10/26 04:37:04;;;;;;;0.30;0.30;;;31.00;56.60;;;;;;5013933;28;20197;-93
2022/10/26 04:39:39;;;;;;;3.17;0.40;;;30.90;56.30;;;;;;5014142;28;20206;-91
2022/10/26 04:42:11;;;;;;;0.40;0.20;;;30.90;56.00;;;;;;5013458;28;20197;-93
2022/10/26 04:44:42;;;;;;;2.08;0.40;;;30.60;54.80;;;;;;5013913;28;20636;-95
2022/10/26 04:47:13;;;;;;;1.67;0.40;;;30.80;56.80;;;;;;5014016;28;20205;-92
2022/10/26 04:49:44;;;;;;;0.80;0.47;;;31.10;55.30;;;;;;5014505;28;20206;-95
2022/10/26 04:52:16;;;;;;;1.15;0.20;;;30.80;55.90;;;;;;5020942;28;20227;-93
2022/10/26 04:54:56;;;;;;;0.20;0.20;;;30.80;56.20;;;;;;5014314;28;20303;-92
2022/10/26 04:57:27;;;;;;;0.25;0.20;;;30.50;55.40;;;;;;5012525;28;20567;-91
2022/10/26 04:59:58;;;;;;;0.40;0.30;;;30.30;57.00;;;;;;5014480;28;20292;-91
2022/10/26 05:02:29;;;;;;;0.10;0.10;;;30.90;56.80;;;;;;5018231;28;20202;-92
2022/10/26 05:05:00;;;;;;;1.85;0.40;;;31.50;56.20;;;;;;5013125;28;20281;-91
2022/10/26 05:07:31;;;;;;;0.20;0.20;;;32.00;57.10;;;;;;5013308;28;20297;-93
2022/10/26 05:10:06;;;;;;;0.22;0.20;;;32.30;56.30;;;;;;5014599;28;20673;-94
2022/10/26 05:12:38;;;;;;;0.43;0.30;;;32.70;52.70;;;;;;5012221;28;20308;-91
2022/10/26 05:15:13;;;;;;;0.30;0.20;;;33.00;52.90;;;;;;5012364;28;20210;-91
2022/10/26 05:17:46;;;;;;;0.32;0.32;;;33.30;51.20;;;;;;4994666;28;20193;-91
2022/10/26 05:20:17;;;;;;;0.60;0.20;;;33.50;50.80;;;;;;5012072;28;20206;-94
2022/10/26 05:22:56;;;;;;;2.10;0.20;;;33.70;50.50;;;;;;5022904;28;20253;-92
2022/10/26 05:25:31;;;;;;;0.20;0.20;;;33.80;48.80;;;;;;5024518;28;20293;-92
2022/10/26 05:28:03;;;;;;;1.10;0.35;;;34.10;49.40;;;;;;5013285;28;20240;-92
2022/10/26 05:30:36;;;;;;;0.98;0.30;;;34.40;47.00;;;;;;5009162;28;20205;-93
2022/10/26 05:33:07;;;;;;;2.58;0.28;;;34.50;46.00;;;;;;5005889;28;20736;-91
2022/10/26 05:35:39;;;;;;;1.83;0.30;;;34.40;45.80;;;;;;5011160;28;20226;-92
2022/10/26 05:38:15;;;;;;;0.20;0.20;;;33.90;48.50;;;;;;5011821;28;20198;-90
2022/10/26 05:40:57;;;;;;;0.65;0.20;;;34.00;47.80;;;;;;5011951;28;20653;-92
2022/10/26 05:43:29;;;;;;;0.60;0.22;;;33.90;47.10;;;;;;5013558;28;20234;-89
2022/10/26 05:46:00;;;;;;;0.80;0.20;;;33.00;49.40;;;;;;5004914;28;20206;-88
2022/10/26 05:48:31;;;;;;;0.77;0.30;;;32.50;49.90;;;;;;5010002;28;20579;-89
2022/10/26 05:51:02;;;;;;;1.08;0.28;;;32.00;49.70;;;;;;5012352;28;20237;-90
2022/10/26 05:53:33;;;;;;;0.50;0.30;;;31.60;51.40;;;;;;4993549;28;20305;-89
2022/10/26 05:56:15;;;;;;;0.20;0.20;;;31.70;50.40;;;;;;5011875;28;20288;-88
2022/10/26 05:58:46;;;;;;;0.32;0.20;;;31.90;49.40;;;;;;5012253;28;20198;-90
2022/10/26 06:01:32;;;;;;;1.27;0.30;;;31.40;50.20;;;;;;5000384;28;20202;-92
2022/10/26 06:04:15;;;;;;;0.90;0.47;;;30.80;51.00;;;;;;4998874;28;20198;-91
2022/10/26 06:06:49;;;;;;;0.28;0.20;;;30.30;52.20;;;;;;5014200;28;20198;-90
2022/10/26 06:09:21;;;;;;;0.80;0.30;;;30.00;52.70;;;;;;5013463;28;20635;-90
2022/10/26 06:11:54;;;;;;;0.80;0.30;;;30.70;51.30;;;;;;5012626;28;20221;-88
2022/10/26 06:14:27;;;;;;;0.30;0.10;;;30.80;51.20;;;;;;5011189;28;20223;-90
2022/10/26 06:17:10;;;;;;;0.50;0.20;;;31.60;51.30;;;;;;5012688;28;20578;-89
2022/10/26 06:19:53;;;;;;;0.30;0.20;;;32.10;49.90;;;;;;5010458;28;20268;-88
2022/10/26 06:22:37;;;;;;;0.28;0.22;;;32.90;50.00;;;;;;5012093;28;20335;-89
2022/10/26 06:25:19;;;;;;;0.80;0.30;;;33.80;48.20;;;;;;5034670;28;20233;-85
2022/10/26 06:27:59;;;;;;;1.65;0.20;;;34.40;46.60;;;;;;5013267;28;20261;-90
2022/10/26 06:30:30;;;;;;;0.88;0.38;;;34.20;46.20;;;;;;5012821;28;20220;-86
2022/10/26 06:33:03;;;;;;;0.77;0.20;;;34.10;46.60;;;;;;4992132;28;20206;-87
2022/10/26 06:35:42;;;;;;;0.88;0.30;;;34.30;46.60;;;;;;5007802;28;20658;-87
2022/10/26 06:38:16;;;;;;;1.65;0.28;;;35.00;45.60;;;;;;5010988;28;20198;-87
2022/10/26 06:40:51;;;;;;;1.30;0.30;;;35.70;45.20;;;;;;5011086;28;20201;-86
2022/10/26 06:43:28;;;;;;;1.02;0.40;;;36.00;44.40;;;;;;5007695;28;20198;-88
2022/10/26 06:46:07;;;;;;;0.77;0.40;;;36.00;42.80;;;;;;4993215;28;20669;-88
2022/10/26 06:48:48;;;;;;;1.00;0.50;;;35.30;42.80;;;;;;4999434;28;20728;-86
2022/10/26 06:51:20;;;;;;;2.00;0.30;;;34.70;44.50;;;;;;5013591;28;20776;-86
2022/10/26 06:53:58;;;;;;;0.28;0.28;;;34.40;45.30;;;;;;5010089;28;20736;-86
2022/10/26 06:56:30;;;;;;;0.63;0.20;;;34.00;45.80;;;;;;5009019;28;20333;-87
2022/10/26 06:59:10;;;;;;;0.75;0.20;;;33.20;46.00;;;;;;4999945;28;20565;-87
2022/10/26 07:01:41;;;;;;;0.50;0.45;;;32.40;48.40;;;;;;5001202;28;20662;-87
2022/10/26 07:04:12;;;;;;;0.20;0.20;;;31.90;49.90;;;;;;5000577;28;20696;-86
2022/10/26 07:06:43;;;;;;;0.38;0.30;;;31.40;50.60;;;;;;5000978;28;20232;-86
2022/10/26 07:09:14;;;;;;;0.30;0.30;;;31.10;50.00;;;;;;4985203;28;20573;-87
2022/10/26 07:11:44;;;;;;;1.55;0.30;;;30.60;50.90;;;;;;4986388;28;20228;-87
2022/10/26 07:14:17;;;;;;;0.25;0.25;;;30.10;50.50;;;;;;4985750;28;20233;-86
2022/10/26 07:16:50;;;;;;;0.20;0.20;;;29.70;51.90;;;;;;4989081;28;20201;-87
2022/10/26 07:19:21;;;;;;;0.85;0.30;;;29.30;53.20;;;;;;4991524;28;20204;-87
2022/10/26 07:21:52;;;;;;;0.80;0.40;;;29.00;54.40;;;;;;4993565;28;20577;-87
2022/10/26 07:24:26;;;;;;;1.33;0.40;;;28.90;55.60;;;;;;5002710;28;20197;-86
2022/10/26 07:26:57;;;;;;;0.52;0.35;;;28.70;56.00;;;;;;5008579;28;20282;-86
2022/10/26 07:29:30;;;;;;;0.60;0.32;;;28.50;56.70;;;;;;4993541;28;20208;-85
2022/10/26 07:32:02;;;;;;;2.00;0.60;;;28.30;57.80;;;;;;4994940;28;20198;-86
2022/10/26 07:34:32;;;;;;;0.70;0.40;;;28.20;58.50;;;;;;4991973;28;20600;-86
2022/10/26 07:37:04;;;;;;;0.60;0.45;;;28.00;59.40;;;;;;4991433;28;20202;-87
2022/10/26 07:39:35;;;;;;;2.78;0.40;;;28.00;60.40;;;;;;4993985;28;20248;-88
2022/10/26 07:42:06;;;;;;;0.98;0.40;;;27.90;60.90;;;;;;4990776;28;20214;-89
2022/10/26 07:44:39;;;;;;;0.77;0.30;;;27.90;62.10;;;;;;4992035;28;20207;-89
2022/10/26 07:47:11;;;;;;;1.20;0.40;;;27.80;61.50;;;;;;4993665;28;20564;-88
2022/10/26 07:49:42;;;;;;;0.52;0.40;;;27.80;62.20;;;;;;4994129;28;20419;-88
2022/10/26 07:52:14;;;;;;;0.45;0.30;;;27.70;63.80;;;;;;4999922;28;20616;-89
2022/10/26 07:54:46;;;;;;;4.03;0.65;;;27.70;64.00;;;;;;5011574;28;20252;-88
2022/10/26 07:57:19;;;;;;;0.50;0.40;;;27.60;64.90;;;;;;4985344;28;20620;-89
2022/10/26 07:59:54;;;;;;;0.40;0.40;;;27.60;64.80;;;;;;4993371;28;20266;-89
2022/10/26 08:02:26;;;;;;;0.90;0.70;;;27.50;66.30;;;;;;4994956;28;20202;-89
2022/10/26 08:04:59;;;;;;;1.10;1.00;;;27.50;68.40;;;;;;4990313;28;20210;-90
2022/10/26 08:07:34;;;;;;;2.92;2.40;;;27.50;67.70;;;;;;5006232;28;20206;-89
2022/10/26 08:10:05;;;;;;;2.70;1.75;;;27.40;67.30;;;;;;5009327;28;20193;-90
2022/10/26 08:12:37;;;;;;;1.20;1.00;;;27.40;68.40;;;;;;4993662;28;20584;-90
2022/10/26 08:15:11;;;;;;;2.92;0.73;;;27.30;69.40;;;;;;4992036;28;20230;-92
2022/10/26 08:17:41;;;;;;;2.45;0.30;;;27.30;71.70;;;;;;4992346;28;20250;-90
2022/10/26 08:20:13;;;;;;;0.95;0.50;;;27.30;70.80;;;;;;4991168;28;20207;-90
2022/10/26 08:22:47;;;;;;;0.50;0.30;;;27.20;71.30;;;;;;4990888;28;20213;-91
2022/10/26 08:25:19;;;;;;;0.90;0.45;;;27.20;71.20;;;;;;5007947;28;20270;-88
2022/10/26 08:27:49;;;;;;;1.77;0.57;;;27.10;72.30;;;;;;5001803;28;20202;-90
2022/10/26 08:30:24;;;;;;;1.35;0.60;;;27.20;73.00;;;;;;5000486;28;20205;-89
2022/10/26 08:33:03;;;;;;;1.30;0.70;;;27.10;73.70;;;;;;4995979;28;20208;-88
2022/10/26 08:35:37;;;;;;;1.00;0.60;;;27.20;74.10;;;;;;4984406;28;20704;-86
2022/10/26 08:38:09;;;;;;;0.85;0.55;;;27.10;75.20;;;;;;4986582;28;20201;-87
2022/10/26 08:40:42;;;;;;;1.27;1.02;;;27.10;75.70;;;;;;5007516;28;20201;-86
2022/10/26 08:43:21;;;;;;;3.25;1.40;;;27.00;76.30;;;;;;5011042;28;20190;-87
2022/10/26 08:46:01;;;;;;;1.10;0.93;;;27.00;77.60;;;;;;5013080;28;20202;-88
2022/10/26 08:48:35;;;;;;;1.75;0.90;;;26.90;79.30;;;;;;5013270;28;20201;-89
2022/10/26 08:51:13;;;;;;;1.10;0.75;;;26.90;80.90;;;;;;5013752;28;20237;-87
2022/10/26 08:53:51;;;;;;;1.38;1.10;;;26.90;81.10;;;;;;5010218;28;20192;-87
2022/10/26 08:56:25;;;;;;;2.50;1.13;;;26.80;81.80;;;;;;4985205;28;20210;-90
2022/10/26 08:59:00;;;;;;;3.35;1.50;;;26.80;82.50;;;;;;4988209;28;20201;-87
2022/10/26 09:01:33;;;;;;;2.75;1.13;;;26.80;81.00;;;;;;4984899;28;20213;-88
2022/10/26 09:04:05;;;;;;;1.70;0.90;;;26.80;83.50;;;;;;4988056;28;20197;-89
2022/10/26 09:06:44;;;;;;;0.70;0.57;;;26.80;81.50;;;;;;4980166;28;20221;-88
2022/10/26 09:09:21;;;;;;;1.35;0.80;;;26.70;83.40;;;;;;4988224;28;20207;-88
2022/10/26 09:11:59;;;;;;;1.27;0.82;;;26.70;84.20;;;;;;4986329;28;20742;-86
2022/10/26 09:14:39;;;;;;;2.13;1.00;;;26.60;83.40;;;;;;4982954;28;20225;-88
2022/10/26 09:17:20;;;;;;;1.50;1.10;;;26.60;84.50;;;;;;4984717;28;20214;-88
2022/10/26 09:20:31;;;;;;;4.60;1.80;;;26.60;85.00;;;;;;4984960;28;20924;-88
2022/10/26 09:23:08;;;;;;;0.85;0.80;;;26.60;86.00;;;;;;4949315;28;21538;-88
2022/10/26 09:25:43;;;;;;;2.38;0.60;;;26.50;86.80;;;;;;4999095;28;20206;-88
2022/10/26 09:28:19;;;;;;;2.33;1.67;;;26.50;87.90;;;;;;5000818;28;20237;-89
2022/10/26 09:30:51;;;;;;;0.93;0.73;;;26.50;89.20;;;;;;4984043;28;20628;-90
2022/10/26 09:33:26;;;;;;;1.33;0.50;;;26.40;88.90;;;;;;4987521;28;20212;-89
2022/10/26 09:36:01;;;;;;;2.08;0.80;;;26.30;90.70;;;;;;4986133;28;20241;-87
2022/10/26 09:38:33;;;;;;;2.92;0.60;;;26.30;90.50;;;;;;4993921;28;20217;-88
2022/10/26 09:41:08;;;;;;;2.20;1.08;;;26.20;90.80;;;;;;4993339;28;20210;-88
2022/10/26 09:43:46;;;;;;;3.30;0.80;;;26.30;90.90;;;;;;4990676;28;20209;-86
2022/10/26 09:46:22;;;;;;;1.48;0.68;;;26.30;91.30;;;;;;5005366;28;20212;-88
2022/10/26 09:48:58;;;;;;;2.75;1.05;;;26.20;91.80;;;;;;5013042;28;20537;-87
2022/10/26 09:51:31;;;;;;;1.70;0.65;;;26.20;91.50;;;;;;5005790;28;20225;-89
2022/10/26 09:54:03;;;;;;;1.10;0.30;;;26.20;92.40;;;;;;4994353;28;20330;-89
2022/10/26 09:56:38;;;;;;;0.50;0.45;;;26.20;92.30;;;;;;5015113;28;20221;-89
2022/10/26 09:59:10;;;;;;;1.45;0.80;;;26.20;92.60;;;;;;5021715;28;20197;-92
2022/10/26 10:01:42;;;;;;;0.68;0.50;;;26.20;92.40;;;;;;5010428;28;20290;-90
2022/10/26 10:04:22;;;;;;;0.98;0.50;;;26.20;93.20;;;;;;4990039;28;20293;-90
2022/10/26 10:06:57;;;;;;;3.58;0.55;;;26.10;92.90;;;;;;4986151;28;20210;-89
2022/10/26 10:09:27;;;;;;;0.40;0.32;;;26.10;93.70;;;;;;4990265;28;20229;-89
2022/10/26 10:12:01;;;;;;;1.00;0.40;;;26.10;94.10;;;;;;5009857;28;20222;-90
2022/10/26 10:14:34;;;;;;;3.28;0.43;;;26.00;93.50;;;;;;5011916;28;20221;-90
2022/10/26 10:17:07;;;;;;;1.35;0.65;;;26.00;94.20;;;;;;5015186;28;20197;-89
2022/10/26 10:19:41;;;;;;;0.88;0.50;;;26.00;95.20;;;;;;5014269;28;20218;-88
2022/10/26 10:22:21;;;;;;;0.52;0.40;;;25.90;95.60;;;;;;5018266;28;20197;-88
2022/10/26 10:24:58;;;;;;;1.00;0.77;;;25.90;95.80;;;;;;5021487;28;20206;-88
2022/10/26 10:27:32;;;;;;;1.30;0.50;;;25.90;95.60;;;;;;5018877;28;20182;-87
2022/10/26 10:30:23;;;;;;;0.40;0.28;;;25.90;94.40;;;;;;5028449;28;20206;-87
2022/10/26 10:33:09;;;;;;;1.95;0.47;;;25.80;94.40;;;;;;5015865;28;20206;-88
2022/10/26 10:35:52;;;;;;;1.85;0.30;;;25.80;94.40;;;;;;5002625;28;20233;-90
2022/10/26 10:38:25;;;;;;;0.28;0.28;;;25.80;93.00;;;;;;5009576;28;20612;-90
2022/10/26 10:41:02;;;;;;;1.38;0.30;;;25.70;92.70;;;;;;5002143;28;20277;-89
2022/10/26 10:43:34;;;;;;;1.40;0.40;;;25.80;92.10;;;;;;4995302;28;20201;-90
2022/10/26 10:46:05;;;;;;;1.45;0.38;;;25.70;91.90;;;;;;5004032;28;20276;-89
2022/10/26 10:48:39;;;;;;;0.63;0.40;;;25.60;90.40;;;;;;5007311;28;20212;-89
2022/10/26 10:51:14;;;;;;;0.98;0.40;;;25.60;89.10;;;;;;5010546;28;20229;-88
2022/10/26 10:53:49;;;;;;;0.50;0.50;;;25.60;89.80;;;;;;5011374;28;20199;-87
2022/10/26 10:56:42;;;;;;;0.70;0.40;;;25.60;89.70;;;;;;5013041;28;20756;-89
2022/10/26 11:06:03;;;;;;;2.08;0.40;;;25.50;90.50;;;;;;5009320;28;20243;-89
2022/10/26 11:08:47;;;;;;;0.40;0.25;;;25.60;90.40;;;;;;5014710;28;20208;-88
2022/10/26 11:11:23;;;;;;;2.38;0.40;;;25.50;91.20;;;;;;4996248;28;20218;-89
2022/10/26 11:14:01;;;;;;;0.30;0.30;;;25.50;91.40;;;;;;5015762;28;20260;-89
2022/10/26 11:16:35;;;;;;;0.30;0.30;;;25.40;91.20;;;;;;5016560;28;20296;-91
2022/10/26 11:19:17;;;;;;;2.03;0.30;;;25.30;91.80;;;;;;5018966;28;20210;-91
2022/10/26 11:21:50;;;;;;;1.90;0.30;;;25.30;92.00;;;;;;5011531;28;20209;-88
2022/10/26 11:24:34;;;;;;;2.08;0.40;;;25.30;92.50;;;;;;5007108;28;20237;-88
2022/10/26 11:27:19;;;;;;;4.78;0.30;;;25.30;92.50;;;;;;5016848;28;20679;-88
2022/10/26 11:29:59;;;;;;;1.77;0.25;;;25.30;92.20;;;;;;5020972;28;20216;-89
2022/10/26 11:32:34;;;;;;;0.52;0.30;;;25.20;92.50;;;;;;5032707;28;20642;-90
2022/10/26 11:35:13;;;;;;;0.55;0.40;;;25.20;92.50;;;;;;5016826;28;20227;-91
2022/10/26 11:37:52;;;;;;;0.40;0.20;;;25.20;92.60;;;;;;4998632;28;20204;-88
2022/10/26 11:40:35;;;;;;;0.85;0.30;;;25.20;93.10;;;;;;5018460;28;20201;-87
2022/10/26 11:43:15;;;;;;;0.32;0.32;;;25.20;93.60;;;;;;5003341;28;20570;-87
2022/10/26 11:45:51;;;;;;;3.03;0.40;;;25.20;93.50;;;;;;5008962;28;20228;-90
2022/10/26 11:48:29;;;;;;;0.30;0.30;;;25.10;93.80;;;;;;5014828;28;20208;-90
2022/10/26 11:51:02;;;;;;;0.22;0.22;;;25.00;94.60;;;;;;5019439;28;20202;-90
2022/10/26 11:53:40;;;;;;;1.35;0.30;;;25.10;94.60;;;;;;5022001;28;20206;-89
2022/10/26 11:56:20;;;;;;;0.55;0.30;;;25.00;94.80;;;;;;5027193;28;20236;-90
2022/10/26 11:58:59;;;;;;;0.95;0.30;;;25.00;94.90;;;;;;5019596;28;20209;-91
2022/10/26 12:01:36;;;;;;;1.00;0.38;;;25.00;95.50;;;;;;5003503;28;20208;-90
2022/10/26 12:04:10;;;;;;;1.75;0.32;;;24.90;96.00;;;;;;5020238;28;20202;-91
2022/10/26 12:06:43;;;;;;;0.93;0.30;;;24.90;96.50;;;;;;5025306;28;20210;-92
2022/10/26 12:09:21;;;;;;;0.30;0.30;;;24.80;97.20;;;;;;5002065;28;20197;-91
2022/10/26 12:12:03;;;;;;;1.02;0.32;;;24.80;97.50;;;;;;5016615;28;20200;-91
2022/10/26 12:14:42;;;;;;;0.20;0.20;;;24.80;98.60;;;;;;5021507;28;20206;-89
2022/10/26 12:17:18;;;;;;;1.02;0.40;;;24.70;99.20;;;;;;5001662;28;20312;-90
2022/10/26 12:19:56;;;;;;;1.30;0.30;;;24.70;99.40;;;;;;5002220;28;20256;-90
2022/10/26 12:22:32;;;;;;;0.45;0.30;;;24.70;99.90;;;;;;5020000;28;20272;-90
2022/10/26 12:25:25;;;;;;;2.40;0.40;;;24.70;99.90;;;;;;5020594;28;20276;-90
2022/10/26 12:28:01;;;;;;;1.98;0.60;;;24.60;99.90;;;;;;5003680;28;20206;-89
2022/10/26 12:30:38;;;;;;;1.20;0.40;;;24.60;99.90;;;;;;5006875;28;20667;-90
2022/10/26 12:33:32;;;;;;;2.38;0.40;;;24.60;99.90;;;;;;5015091;28;20213;-89
2022/10/26 12:36:04;;;;;;;0.40;0.40;;;24.50;99.90;;;;;;5026450;28;20201;-90
2022/10/26 12:39:01;;;;;;;2.40;0.60;;;24.50;99.90;;;;;;5005603;28;20203;-89
2022/10/26 12:41:33;;;;;;;1.15;0.40;;;24.50;99.90;;;;;;5001429;28;20198;-89
2022/10/26 12:44:38;;;;;;;0.77;0.40;;;24.50;99.90;;;;;;4992328;28;20678;-90
2022/10/26 12:47:12;;;;;;;2.55;0.63;;;24.40;99.90;;;;;;4991914;28;20206;-90
2022/10/26 12:50:05;;;;;;;1.77;0.70;;;24.40;99.90;;;;;;4987274;28;20688;-90
2022/10/26 12:52:49;;;;;;;0.47;0.40;;;24.30;99.90;;;;;;4994526;28;20233;-89
2022/10/26 12:55:58;;;;;;;1.95;0.40;;;24.30;99.90;;;;;;5013370;28;20206;-89
2022/10/26 12:59:01;;;;;;;0.82;0.60;;;24.30;99.90;;;;;;5005167;28;20195;-90
2022/10/26 13:02:14;;;;;;;0.57;0.57;;;24.30;99.90;;;;;;4995639;28;20201;-90
2022/10/26 13:05:03;;;;;;;1.85;0.45;;;24.30;99.90;;;;;;5007717;28;20205;-89
2022/10/26 13:07:40;;;;;;;0.60;0.50;;;24.20;99.90;;;;;;5018918;28;20222;-90
2022/10/26 13:10:23;;;;;;;0.55;0.30;;;24.20;99.90;;;;;;4997722;28;20669;-88
2022/10/26 13:12:57;;;;;;;0.45;0.45;;;24.30;99.90;;;;;;5007511;28;20222;-92
2022/10/26 13:15:31;;;;;;;0.60;0.40;;;24.20;99.90;;;;;;5006221;28;20207;-92
2022/10/26 13:18:19;;;;;;;0.50;0.40;;;24.30;99.90;;;;;;4993663;28;20687;-92
2022/10/26 13:21:02;;;;;;;1.42;0.60;;;24.20;99.90;;;;;;5014285;28;20194;-91
2022/10/26 13:23:37;;;;;;;1.60;0.40;;;24.20;99.90;;;;;;5014478;28;20574;-93
2022/10/26 13:26:11;;;;;;;0.45;0.40;;;24.10;99.90;;;;;;4980405;28;20197;-92
2022/10/26 13:28:52;;;;;;;0.40;0.40;;;24.10;99.90;;;;;;5002056;28;20194;-92
2022/10/26 13:31:59;;;;;;;0.30;0.30;;;24.10;99.90;;;;;;5013981;28;20198;-93
2022/10/26 13:34:33;;;;;;;0.47;0.47;;;24.00;99.90;;;;;;5002570;28;20206;-93
2022/10/26 13:37:19;;;;;;;0.50;0.50;;;24.00;99.90;;;;;;5027947;28;20276;-91
2022/10/26 13:39:54;;;;;;;0.63;0.40;;;24.00;99.90;;;;;;5023924;28;20219;-91
2022/10/26 13:42:29;;;;;;;0.50;0.50;;;24.00;99.90;;;;;;5012489;28;20608;-91